sensor_id;sensor_type;location;lat;lon;timestamp;P1;durP1;ratioP1;P2;durP2;ratioP2
69047;SDS011;56119;50.118;8.642;2023-08-08T00:01:34;4.68;;;2.22;;
69047;SDS011;56119;50.118;8.642;2023-08-08T00:04:00;3.63;;;2.55;;
69047;SDS011;56119;50.118;8.642;2023-08-08T00:06:26;6.03;;;2.47;;
69047;SDS011;56119;50.118;8.642;2023-08-08T00:08:52;3.30;;;2.28;;
69047;SDS011;56119;50.118;8.642;2023-08-08T00:11:18;2.65;;;1.90;;
69047;SDS011;56119;50.118;8.642;2023-08-08T00:13:44;3.30;;;2.28;;
69047;SDS011;56119;50.118;8.642;2023-08-08T00:16:10;3.72;;;2.53;;
69047;SDS011;56119;50.118;8.642;2023-08-08T00:18:36;6.20;;;2.80;;
69047;SDS011;56119;50.118;8.642;2023-08-08T00:21:02;3.15;;;2.20;;
69047;SDS011;56119;50.118;8.642;2023-08-08T00:23:28;5.20;;;2.30;;
69047;SDS011;56119;50.118;8.642;2023-08-08T00:25:54;3.72;;;2.58;;
69047;SDS011;56119;50.118;8.642;2023-08-08T00:28:20;7.25;;;2.50;;
69047;SDS011;56119;50.118;8.642;2023-08-08T00:30:46;3.33;;;2.08;;
69047;SDS011;56119;50.118;8.642;2023-08-08T00:33:12;4.28;;;2.20;;
69047;SDS011;56119;50.118;8.642;2023-08-08T00:35:38;3.85;;;2.17;;
69047;SDS011;56119;50.118;8.642;2023-08-08T00:38:04;5.68;;;2.75;;
69047;SDS011;56119;50.118;8.642;2023-08-08T00:40:30;4.82;;;2.65;;
69047;SDS011;56119;50.118;8.642;2023-08-08T00:42:56;2.72;;;1.88;;
69047;SDS011;56119;50.118;8.642;2023-08-08T00:45:22;2.97;;;1.90;;
69047;SDS011;56119;50.118;8.642;2023-08-08T00:47:48;5.18;;;2.15;;
69047;SDS011;56119;50.118;8.642;2023-08-08T00:50:14;4.32;;;2.20;;
69047;SDS011;56119;50.118;8.642;2023-08-08T00:52:43;5.45;;;2.33;;
69047;SDS011;56119;50.118;8.642;2023-08-08T00:55:09;6.05;;;2.38;;
69047;SDS011;56119;50.118;8.642;2023-08-08T00:57:35;4.30;;;2.35;;
69047;SDS011;56119;50.118;8.642;2023-08-08T01:00:04;4.78;;;2.25;;
69047;SDS011;56119;50.118;8.642;2023-08-08T01:02:30;3.08;;;2.20;;
69047;SDS011;56119;50.118;8.642;2023-08-08T01:04:56;5.32;;;1.88;;
69047;SDS011;56119;50.118;8.642;2023-08-08T01:09:55;2.85;;;2.15;;
69047;SDS011;56119;50.118;8.642;2023-08-08T01:12:23;4.75;;;2.30;;
69047;SDS011;56119;50.118;8.642;2023-08-08T01:14:49;4.05;;;2.40;;
69047;SDS011;56119;50.118;8.642;2023-08-08T01:17:16;2.97;;;2.47;;
69047;SDS011;56119;50.118;8.642;2023-08-08T01:19:42;6.10;;;2.80;;
69047;SDS011;56119;50.118;8.642;2023-08-08T01:22:14;4.07;;;2.88;;
69047;SDS011;56119;50.118;8.642;2023-08-08T01:24:42;5.70;;;2.60;;
69047;SDS011;56119;50.118;8.642;2023-08-08T01:27:09;5.00;;;2.72;;
69047;SDS011;56119;50.118;8.642;2023-08-08T01:29:36;5.20;;;2.50;;
69047;SDS011;56119;50.118;8.642;2023-08-08T01:32:02;5.05;;;2.53;;
69047;SDS011;56119;50.118;8.642;2023-08-08T01:34:28;3.38;;;2.17;;
69047;SDS011;56119;50.118;8.642;2023-08-08T01:36:56;4.63;;;2.38;;
69047;SDS011;56119;50.118;8.642;2023-08-08T01:39:25;4.30;;;2.10;;
69047;SDS011;56119;50.118;8.642;2023-08-08T01:41:51;3.25;;;2.50;;
69047;SDS011;56119;50.118;8.642;2023-08-08T01:44:18;4.60;;;2.50;;
69047;SDS011;56119;50.118;8.642;2023-08-08T01:46:44;3.85;;;1.98;;
69047;SDS011;56119;50.118;8.642;2023-08-08T01:49:10;7.10;;;3.00;;
69047;SDS011;56119;50.118;8.642;2023-08-08T01:51:36;6.15;;;2.55;;
69047;SDS011;56119;50.118;8.642;2023-08-08T01:54:02;3.72;;;2.47;;
69047;SDS011;56119;50.118;8.642;2023-08-08T01:56:28;3.35;;;2.40;;
69047;SDS011;56119;50.118;8.642;2023-08-08T01:58:54;6.00;;;3.40;;
69047;SDS011;56119;50.118;8.642;2023-08-08T02:01:21;3.78;;;2.63;;
69047;SDS011;56119;50.118;8.642;2023-08-08T02:03:47;4.35;;;2.78;;
69047;SDS011;56119;50.118;8.642;2023-08-08T02:06:13;3.67;;;2.63;;
69047;SDS011;56119;50.118;8.642;2023-08-08T02:08:40;3.55;;;2.58;;
69047;SDS011;56119;50.118;8.642;2023-08-08T02:11:06;5.50;;;2.78;;
69047;SDS011;56119;50.118;8.642;2023-08-08T02:13:32;4.38;;;2.72;;
69047;SDS011;56119;50.118;8.642;2023-08-08T02:15:58;5.97;;;3.10;;
69047;SDS011;56119;50.118;8.642;2023-08-08T02:18:23;4.93;;;2.70;;
69047;SDS011;56119;50.118;8.642;2023-08-08T02:20:50;3.90;;;2.63;;
69047;SDS011;56119;50.118;8.642;2023-08-08T02:23:16;4.47;;;2.67;;
69047;SDS011;56119;50.118;8.642;2023-08-08T02:25:42;4.18;;;2.83;;
69047;SDS011;56119;50.118;8.642;2023-08-08T02:28:08;3.40;;;2.15;;
69047;SDS011;56119;50.118;8.642;2023-08-08T02:30:34;4.50;;;2.83;;
69047;SDS011;56119;50.118;8.642;2023-08-08T02:33:00;4.63;;;2.83;;
69047;SDS011;56119;50.118;8.642;2023-08-08T02:35:26;7.00;;;2.80;;
69047;SDS011;56119;50.118;8.642;2023-08-08T02:37:52;7.78;;;2.97;;
69047;SDS011;56119;50.118;8.642;2023-08-08T02:40:18;4.95;;;2.92;;
69047;SDS011;56119;50.118;8.642;2023-08-08T02:42:44;4.63;;;2.50;;
69047;SDS011;56119;50.118;8.642;2023-08-08T02:45:10;3.50;;;2.67;;
69047;SDS011;56119;50.118;8.642;2023-08-08T02:47:36;5.72;;;3.05;;
69047;SDS011;56119;50.118;8.642;2023-08-08T02:50:02;4.45;;;2.30;;
69047;SDS011;56119;50.118;8.642;2023-08-08T02:52:28;5.40;;;2.40;;
69047;SDS011;56119;50.118;8.642;2023-08-08T02:54:54;4.43;;;2.50;;
69047;SDS011;56119;50.118;8.642;2023-08-08T02:57:20;3.67;;;2.17;;
69047;SDS011;56119;50.118;8.642;2023-08-08T02:59:46;3.33;;;2.50;;
69047;SDS011;56119;50.118;8.642;2023-08-08T03:02:12;3.92;;;2.38;;
69047;SDS011;56119;50.118;8.642;2023-08-08T03:04:38;5.30;;;3.03;;
69047;SDS011;56119;50.118;8.642;2023-08-08T03:07:04;8.18;;;3.05;;
69047;SDS011;56119;50.118;8.642;2023-08-08T03:09:30;3.42;;;2.38;;
69047;SDS011;56119;50.118;8.642;2023-08-08T03:11:56;3.83;;;2.60;;
69047;SDS011;56119;50.118;8.642;2023-08-08T03:14:22;3.38;;;2.45;;
69047;SDS011;56119;50.118;8.642;2023-08-08T03:16:48;3.17;;;2.85;;
69047;SDS011;56119;50.118;8.642;2023-08-08T03:19:14;3.75;;;3.00;;
69047;SDS011;56119;50.118;8.642;2023-08-08T03:21:40;5.05;;;2.50;;
69047;SDS011;56119;50.118;8.642;2023-08-08T03:24:06;3.80;;;2.58;;
69047;SDS011;56119;50.118;8.642;2023-08-08T03:26:31;4.82;;;3.10;;
69047;SDS011;56119;50.118;8.642;2023-08-08T03:28:57;2.75;;;2.28;;
69047;SDS011;56119;50.118;8.642;2023-08-08T03:31:23;4.22;;;3.08;;
69047;SDS011;56119;50.118;8.642;2023-08-08T03:33:51;5.28;;;2.75;;
69047;SDS011;56119;50.118;8.642;2023-08-08T03:36:17;5.10;;;2.60;;
69047;SDS011;56119;50.118;8.642;2023-08-08T03:38:43;4.43;;;2.50;;
69047;SDS011;56119;50.118;8.642;2023-08-08T03:41:11;4.57;;;2.60;;
69047;SDS011;56119;50.118;8.642;2023-08-08T03:43:37;4.75;;;3.05;;
69047;SDS011;56119;50.118;8.642;2023-08-08T03:46:03;4.53;;;2.83;;
69047;SDS011;56119;50.118;8.642;2023-08-08T03:48:29;4.55;;;2.97;;
69047;SDS011;56119;50.118;8.642;2023-08-08T03:50:55;6.13;;;3.08;;
69047;SDS011;56119;50.118;8.642;2023-08-08T03:53:21;4.85;;;3.00;;
69047;SDS011;56119;50.118;8.642;2023-08-08T03:55:47;4.55;;;2.95;;
69047;SDS011;56119;50.118;8.642;2023-08-08T03:58:13;4.40;;;3.20;;
69047;SDS011;56119;50.118;8.642;2023-08-08T04:00:39;3.67;;;2.67;;
69047;SDS011;56119;50.118;8.642;2023-08-08T04:03:10;3.85;;;2.60;;
69047;SDS011;56119;50.118;8.642;2023-08-08T04:05:36;5.10;;;3.00;;
69047;SDS011;56119;50.118;8.642;2023-08-08T04:08:02;4.78;;;2.88;;
69047;SDS011;56119;50.118;8.642;2023-08-08T04:10:28;4.15;;;2.72;;
69047;SDS011;56119;50.118;8.642;2023-08-08T04:12:54;5.40;;;3.10;;
69047;SDS011;56119;50.118;8.642;2023-08-08T04:15:20;3.75;;;3.00;;
69047;SDS011;56119;50.118;8.642;2023-08-08T04:17:46;5.15;;;3.05;;
69047;SDS011;56119;50.118;8.642;2023-08-08T04:20:12;3.55;;;2.30;;
69047;SDS011;56119;50.118;8.642;2023-08-08T04:22:39;6.55;;;2.85;;
69047;SDS011;56119;50.118;8.642;2023-08-08T04:25:05;2.90;;;2.45;;
69047;SDS011;56119;50.118;8.642;2023-08-08T04:27:31;5.47;;;2.50;;
69047;SDS011;56119;50.118;8.642;2023-08-08T04:29:57;4.18;;;3.00;;
69047;SDS011;56119;50.118;8.642;2023-08-08T04:32:23;3.72;;;2.40;;
69047;SDS011;56119;50.118;8.642;2023-08-08T04:34:49;6.57;;;3.45;;
69047;SDS011;56119;50.118;8.642;2023-08-08T04:37:15;3.47;;;2.65;;
69047;SDS011;56119;50.118;8.642;2023-08-08T04:39:41;4.15;;;2.63;;
69047;SDS011;56119;50.118;8.642;2023-08-08T04:42:07;6.25;;;3.20;;
69047;SDS011;56119;50.118;8.642;2023-08-08T04:44:33;5.78;;;2.70;;
69047;SDS011;56119;50.118;8.642;2023-08-08T04:46:59;5.35;;;2.78;;
69047;SDS011;56119;50.118;8.642;2023-08-08T04:49:25;5.82;;;3.10;;
69047;SDS011;56119;50.118;8.642;2023-08-08T04:51:51;4.20;;;2.50;;
69047;SDS011;56119;50.118;8.642;2023-08-08T04:54:17;5.15;;;2.83;;
69047;SDS011;56119;50.118;8.642;2023-08-08T04:56:43;5.72;;;2.83;;
69047;SDS011;56119;50.118;8.642;2023-08-08T04:59:09;3.55;;;2.75;;
69047;SDS011;56119;50.118;8.642;2023-08-08T05:01:35;6.05;;;3.45;;
69047;SDS011;56119;50.118;8.642;2023-08-08T05:04:01;4.47;;;3.03;;
69047;SDS011;56119;50.118;8.642;2023-08-08T05:06:27;7.80;;;3.13;;
69047;SDS011;56119;50.118;8.642;2023-08-08T05:08:53;5.63;;;2.80;;
69047;SDS011;56119;50.118;8.642;2023-08-08T05:11:19;5.43;;;3.45;;
69047;SDS011;56119;50.118;8.642;2023-08-08T05:13:45;5.75;;;3.30;;
69047;SDS011;56119;50.118;8.642;2023-08-08T05:16:11;5.15;;;3.10;;
69047;SDS011;56119;50.118;8.642;2023-08-08T05:18:37;3.63;;;2.70;;
69047;SDS011;56119;50.118;8.642;2023-08-08T05:21:03;4.20;;;3.10;;
69047;SDS011;56119;50.118;8.642;2023-08-08T05:23:29;5.78;;;3.15;;
69047;SDS011;56119;50.118;8.642;2023-08-08T05:25:54;5.55;;;3.22;;
69047;SDS011;56119;50.118;8.642;2023-08-08T05:28:20;5.97;;;3.58;;
69047;SDS011;56119;50.118;8.642;2023-08-08T05:30:46;8.77;;;3.90;;
69047;SDS011;56119;50.118;8.642;2023-08-08T05:33:12;5.20;;;3.45;;
69047;SDS011;56119;50.118;8.642;2023-08-08T05:35:38;5.32;;;3.67;;
69047;SDS011;56119;50.118;8.642;2023-08-08T05:38:04;5.07;;;3.22;;
69047;SDS011;56119;50.118;8.642;2023-08-08T05:40:30;4.43;;;3.00;;
69047;SDS011;56119;50.118;8.642;2023-08-08T05:42:56;6.32;;;3.17;;
69047;SDS011;56119;50.118;8.642;2023-08-08T05:45:22;5.10;;;3.35;;
69047;SDS011;56119;50.118;8.642;2023-08-08T05:47:48;4.07;;;2.90;;
69047;SDS011;56119;50.118;8.642;2023-08-08T05:50:14;4.00;;;2.85;;
69047;SDS011;56119;50.118;8.642;2023-08-08T05:52:40;4.05;;;2.72;;
69047;SDS011;56119;50.118;8.642;2023-08-08T05:55:06;4.35;;;2.60;;
69047;SDS011;56119;50.118;8.642;2023-08-08T05:57:32;4.47;;;2.67;;
69047;SDS011;56119;50.118;8.642;2023-08-08T05:59:58;3.03;;;1.90;;
69047;SDS011;56119;50.118;8.642;2023-08-08T06:02:24;3.25;;;2.50;;
69047;SDS011;56119;50.118;8.642;2023-08-08T06:04:50;4.03;;;2.45;;
69047;SDS011;56119;50.118;8.642;2023-08-08T06:07:16;2.80;;;2.10;;
69047;SDS011;56119;50.118;8.642;2023-08-08T06:09:42;3.47;;;2.05;;
69047;SDS011;56119;50.118;8.642;2023-08-08T06:12:08;4.88;;;2.40;;
69047;SDS011;56119;50.118;8.642;2023-08-08T06:14:34;4.82;;;2.35;;
69047;SDS011;56119;50.118;8.642;2023-08-08T06:17:00;5.65;;;2.13;;
69047;SDS011;56119;50.118;8.642;2023-08-08T06:19:26;3.53;;;2.50;;
69047;SDS011;56119;50.118;8.642;2023-08-08T06:21:52;4.50;;;2.10;;
69047;SDS011;56119;50.118;8.642;2023-08-08T06:24:18;3.67;;;2.47;;
69047;SDS011;56119;50.118;8.642;2023-08-08T06:26:44;5.50;;;2.40;;
69047;SDS011;56119;50.118;8.642;2023-08-08T06:29:10;4.20;;;2.35;;
69047;SDS011;56119;50.118;8.642;2023-08-08T06:31:37;3.47;;;1.63;;
69047;SDS011;56119;50.118;8.642;2023-08-08T06:34:03;8.57;;;2.22;;
69047;SDS011;56119;50.118;8.642;2023-08-08T06:36:29;3.88;;;2.05;;
69047;SDS011;56119;50.118;8.642;2023-08-08T06:38:55;5.03;;;2.10;;
69047;SDS011;56119;50.118;8.642;2023-08-08T06:41:21;3.20;;;2.05;;
69047;SDS011;56119;50.118;8.642;2023-08-08T06:43:47;5.13;;;2.25;;
69047;SDS011;56119;50.118;8.642;2023-08-08T06:46:13;3.78;;;1.88;;
69047;SDS011;56119;50.118;8.642;2023-08-08T06:48:42;4.25;;;2.22;;
69047;SDS011;56119;50.118;8.642;2023-08-08T06:51:09;3.50;;;2.13;;
69047;SDS011;56119;50.118;8.642;2023-08-08T06:53:35;8.10;;;2.72;;
69047;SDS011;56119;50.118;8.642;2023-08-08T06:56:01;4.22;;;2.28;;
69047;SDS011;56119;50.118;8.642;2023-08-08T06:58:27;3.33;;;1.58;;
69047;SDS011;56119;50.118;8.642;2023-08-08T07:00:53;6.68;;;2.15;;
69047;SDS011;56119;50.118;8.642;2023-08-08T07:03:19;3.47;;;1.90;;
69047;SDS011;56119;50.118;8.642;2023-08-08T07:05:45;3.92;;;1.90;;
69047;SDS011;56119;50.118;8.642;2023-08-08T07:08:12;6.18;;;2.05;;
69047;SDS011;56119;50.118;8.642;2023-08-08T07:10:38;3.22;;;1.40;;
69047;SDS011;56119;50.118;8.642;2023-08-08T07:13:04;4.30;;;1.88;;
69047;SDS011;56119;50.118;8.642;2023-08-08T07:15:30;3.67;;;1.85;;
69047;SDS011;56119;50.118;8.642;2023-08-08T07:17:56;4.10;;;1.50;;
69047;SDS011;56119;50.118;8.642;2023-08-08T07:20:22;6.82;;;1.63;;
69047;SDS011;56119;50.118;8.642;2023-08-08T07:22:49;3.30;;;1.58;;
69047;SDS011;56119;50.118;8.642;2023-08-08T07:25:15;5.53;;;1.45;;
69047;SDS011;56119;50.118;8.642;2023-08-08T07:27:41;2.97;;;1.77;;
69047;SDS011;56119;50.118;8.642;2023-08-08T07:30:07;6.78;;;1.70;;
69047;SDS011;56119;50.118;8.642;2023-08-08T07:32:33;3.60;;;1.40;;
69047;SDS011;56119;50.118;8.642;2023-08-08T07:34:59;3.33;;;1.17;;
69047;SDS011;56119;50.118;8.642;2023-08-08T07:37:30;2.90;;;1.30;;
69047;SDS011;56119;50.118;8.642;2023-08-08T07:39:57;5.40;;;2.20;;
69047;SDS011;56119;50.118;8.642;2023-08-08T07:42:23;3.55;;;1.70;;
69047;SDS011;56119;50.118;8.642;2023-08-08T07:44:49;2.72;;;1.70;;
69047;SDS011;56119;50.118;8.642;2023-08-08T07:47:14;1.95;;;1.20;;
69047;SDS011;56119;50.118;8.642;2023-08-08T07:49:40;3.03;;;1.38;;
69047;SDS011;56119;50.118;8.642;2023-08-08T07:52:06;4.63;;;1.35;;
69047;SDS011;56119;50.118;8.642;2023-08-08T07:54:33;2.85;;;1.33;;
69047;SDS011;56119;50.118;8.642;2023-08-08T07:56:59;2.85;;;1.30;;
69047;SDS011;56119;50.118;8.642;2023-08-08T07:59:25;4.05;;;1.25;;
69047;SDS011;56119;50.118;8.642;2023-08-08T08:01:51;4.28;;;1.60;;
69047;SDS011;56119;50.118;8.642;2023-08-08T08:04:17;2.22;;;1.15;;
69047;SDS011;56119;50.118;8.642;2023-08-08T08:06:43;6.47;;;1.60;;
69047;SDS011;56119;50.118;8.642;2023-08-08T08:09:09;3.58;;;1.20;;
69047;SDS011;56119;50.118;8.642;2023-08-08T08:11:35;2.17;;;1.13;;
69047;SDS011;56119;50.118;8.642;2023-08-08T08:14:01;5.03;;;1.90;;
69047;SDS011;56119;50.118;8.642;2023-08-08T08:16:29;2.47;;;0.95;;
69047;SDS011;56119;50.118;8.642;2023-08-08T08:18:55;3.30;;;1.33;;
69047;SDS011;56119;50.118;8.642;2023-08-08T08:21:21;3.63;;;1.33;;
69047;SDS011;56119;50.118;8.642;2023-08-08T08:23:47;3.13;;;1.20;;
69047;SDS011;56119;50.118;8.642;2023-08-08T08:26:13;2.70;;;1.10;;
69047;SDS011;56119;50.118;8.642;2023-08-08T08:28:39;4.18;;;1.30;;
69047;SDS011;56119;50.118;8.642;2023-08-08T08:31:05;2.20;;;0.93;;
69047;SDS011;56119;50.118;8.642;2023-08-08T08:33:32;3.83;;;1.27;;
69047;SDS011;56119;50.118;8.642;2023-08-08T08:35:58;4.28;;;1.10;;
69047;SDS011;56119;50.118;8.642;2023-08-08T08:38:23;3.97;;;1.33;;
69047;SDS011;56119;50.118;8.642;2023-08-08T08:40:49;2.65;;;1.00;;
69047;SDS011;56119;50.118;8.642;2023-08-08T08:43:19;2.53;;;0.80;;
69047;SDS011;56119;50.118;8.642;2023-08-08T08:45:47;2.55;;;1.27;;
69047;SDS011;56119;50.118;8.642;2023-08-08T08:48:16;4.28;;;1.10;;
69047;SDS011;56119;50.118;8.642;2023-08-08T08:50:42;5.57;;;1.45;;
69047;SDS011;56119;50.118;8.642;2023-08-08T08:53:09;2.85;;;1.35;;
69047;SDS011;56119;50.118;8.642;2023-08-08T08:55:35;2.42;;;1.15;;
69047;SDS011;56119;50.118;8.642;2023-08-08T08:58:01;2.80;;;1.13;;
69047;SDS011;56119;50.118;8.642;2023-08-08T09:00:29;2.78;;;1.17;;
69047;SDS011;56119;50.118;8.642;2023-08-08T09:02:56;3.70;;;1.27;;
69047;SDS011;56119;50.118;8.642;2023-08-08T09:05:22;2.30;;;1.58;;
69047;SDS011;56119;50.118;8.642;2023-08-08T09:07:49;3.30;;;1.30;;
69047;SDS011;56119;50.118;8.642;2023-08-08T09:10:16;3.55;;;1.42;;
69047;SDS011;56119;50.118;8.642;2023-08-08T09:12:43;4.35;;;1.48;;
69047;SDS011;56119;50.118;8.642;2023-08-08T09:15:09;4.57;;;1.15;;
69047;SDS011;56119;50.118;8.642;2023-08-08T09:17:35;2.75;;;1.50;;
69047;SDS011;56119;50.118;8.642;2023-08-08T09:20:01;4.70;;;1.48;;
69047;SDS011;56119;50.118;8.642;2023-08-08T09:22:28;4.20;;;1.00;;
69047;SDS011;56119;50.118;8.642;2023-08-08T09:24:54;2.90;;;1.30;;
69047;SDS011;56119;50.118;8.642;2023-08-08T09:27:20;3.25;;;1.13;;
69047;SDS011;56119;50.118;8.642;2023-08-08T09:29:47;2.63;;;1.20;;
69047;SDS011;56119;50.118;8.642;2023-08-08T09:32:13;5.07;;;1.30;;
69047;SDS011;56119;50.118;8.642;2023-08-08T09:34:41;1.88;;;1.10;;
69047;SDS011;56119;50.118;8.642;2023-08-08T09:37:07;3.05;;;1.40;;
69047;SDS011;56119;50.118;8.642;2023-08-08T09:39:35;5.20;;;1.38;;
69047;SDS011;56119;50.118;8.642;2023-08-08T09:42:02;4.40;;;1.30;;
69047;SDS011;56119;50.118;8.642;2023-08-08T09:44:29;2.47;;;1.42;;
69047;SDS011;56119;50.118;8.642;2023-08-08T09:46:56;5.75;;;1.30;;
69047;SDS011;56119;50.118;8.642;2023-08-08T09:49:22;3.25;;;1.45;;
69047;SDS011;56119;50.118;8.642;2023-08-08T09:51:49;3.35;;;1.70;;
69047;SDS011;56119;50.118;8.642;2023-08-08T09:54:15;3.75;;;1.17;;
69047;SDS011;56119;50.118;8.642;2023-08-08T09:56:42;6.72;;;1.30;;
69047;SDS011;56119;50.118;8.642;2023-08-08T09:59:09;3.92;;;1.85;;
69047;SDS011;56119;50.118;8.642;2023-08-08T10:01:36;3.08;;;1.10;;
69047;SDS011;56119;50.118;8.642;2023-08-08T10:04:05;3.95;;;1.40;;
69047;SDS011;56119;50.118;8.642;2023-08-08T10:06:31;3.22;;;1.40;;
69047;SDS011;56119;50.118;8.642;2023-08-08T10:08:57;3.17;;;1.45;;
69047;SDS011;56119;50.118;8.642;2023-08-08T10:11:24;2.95;;;1.00;;
69047;SDS011;56119;50.118;8.642;2023-08-08T10:13:52;3.03;;;1.27;;
69047;SDS011;56119;50.118;8.642;2023-08-08T10:16:18;5.35;;;1.20;;
69047;SDS011;56119;50.118;8.642;2023-08-08T10:18:45;3.40;;;1.33;;
69047;SDS011;56119;50.118;8.642;2023-08-08T10:21:12;4.75;;;1.55;;
69047;SDS011;56119;50.118;8.642;2023-08-08T10:23:39;3.85;;;1.50;;
69047;SDS011;56119;50.118;8.642;2023-08-08T10:26:16;7.82;;;1.60;;
69047;SDS011;56119;50.118;8.642;2023-08-08T10:28:52;1.92;;;1.00;;
69047;SDS011;56119;50.118;8.642;2023-08-08T10:31:19;2.53;;;1.20;;
69047;SDS011;56119;50.118;8.642;2023-08-08T10:33:46;2.83;;;1.40;;
69047;SDS011;56119;50.118;8.642;2023-08-08T10:36:12;2.83;;;1.55;;
69047;SDS011;56119;50.118;8.642;2023-08-08T10:38:48;2.85;;;1.10;;
69047;SDS011;56119;50.118;8.642;2023-08-08T10:41:20;3.13;;;1.80;;
69047;SDS011;56119;50.118;8.642;2023-08-08T10:43:50;4.32;;;1.30;;
69047;SDS011;56119;50.118;8.642;2023-08-08T10:46:29;3.90;;;1.55;;
69047;SDS011;56119;50.118;8.642;2023-08-08T10:48:56;2.90;;;1.40;;
69047;SDS011;56119;50.118;8.642;2023-08-08T10:51:40;4.15;;;1.75;;
69047;SDS011;56119;50.118;8.642;2023-08-08T10:54:21;2.28;;;1.33;;
69047;SDS011;56119;50.118;8.642;2023-08-08T10:56:52;3.78;;;1.40;;
69047;SDS011;56119;50.118;8.642;2023-08-08T10:59:20;5.97;;;1.80;;
69047;SDS011;56119;50.118;8.642;2023-08-08T11:01:47;3.33;;;1.25;;
69047;SDS011;56119;50.118;8.642;2023-08-08T11:04:14;5.75;;;2.03;;
69047;SDS011;56119;50.118;8.642;2023-08-08T11:06:41;4.35;;;1.40;;
69047;SDS011;56119;50.118;8.642;2023-08-08T11:09:07;3.03;;;1.30;;
69047;SDS011;56119;50.118;8.642;2023-08-08T11:11:39;2.13;;;1.08;;
69047;SDS011;56119;50.118;8.642;2023-08-08T11:14:12;3.42;;;1.30;;
69047;SDS011;56119;50.118;8.642;2023-08-08T11:16:38;1.77;;;1.02;;
69047;SDS011;56119;50.118;8.642;2023-08-08T11:19:04;5.80;;;2.10;;
69047;SDS011;56119;50.118;8.642;2023-08-08T11:21:33;2.80;;;1.13;;
69047;SDS011;56119;50.118;8.642;2023-08-08T11:24:00;2.05;;;1.13;;
69047;SDS011;56119;50.118;8.642;2023-08-08T11:26:26;2.17;;;1.40;;
69047;SDS011;56119;50.118;8.642;2023-08-08T11:28:52;8.68;;;1.50;;
69047;SDS011;56119;50.118;8.642;2023-08-08T11:31:21;3.33;;;1.42;;
69047;SDS011;56119;50.118;8.642;2023-08-08T11:33:48;4.35;;;1.45;;
69047;SDS011;56119;50.118;8.642;2023-08-08T11:36:14;6.38;;;1.40;;
69047;SDS011;56119;50.118;8.642;2023-08-08T11:38:41;2.72;;;1.33;;
69047;SDS011;56119;50.118;8.642;2023-08-08T11:41:09;2.80;;;1.33;;
69047;SDS011;56119;50.118;8.642;2023-08-08T11:43:35;4.68;;;1.98;;
69047;SDS011;56119;50.118;8.642;2023-08-08T11:46:02;4.60;;;1.20;;
69047;SDS011;56119;50.118;8.642;2023-08-08T11:48:28;2.65;;;1.48;;
69047;SDS011;56119;50.118;8.642;2023-08-08T11:50:55;5.07;;;1.50;;
69047;SDS011;56119;50.118;8.642;2023-08-08T11:53:22;3.72;;;1.65;;
69047;SDS011;56119;50.118;8.642;2023-08-08T11:55:48;4.35;;;1.25;;
69047;SDS011;56119;50.118;8.642;2023-08-08T11:58:14;2.42;;;1.40;;
69047;SDS011;56119;50.118;8.642;2023-08-08T12:00:42;5.10;;;1.75;;
69047;SDS011;56119;50.118;8.642;2023-08-08T12:03:12;4.40;;;1.50;;
69047;SDS011;56119;50.118;8.642;2023-08-08T12:05:44;2.80;;;1.25;;
69047;SDS011;56119;50.118;8.642;2023-08-08T12:08:10;3.53;;;1.50;;
69047;SDS011;56119;50.118;8.642;2023-08-08T12:10:36;2.72;;;1.40;;
69047;SDS011;56119;50.118;8.642;2023-08-08T12:13:02;1.98;;;1.20;;
69047;SDS011;56119;50.118;8.642;2023-08-08T12:15:31;5.80;;;1.60;;
69047;SDS011;56119;50.118;8.642;2023-08-08T12:17:57;3.35;;;1.30;;
69047;SDS011;56119;50.118;8.642;2023-08-08T12:20:26;4.63;;;1.60;;
69047;SDS011;56119;50.118;8.642;2023-08-08T12:22:52;4.03;;;1.33;;
69047;SDS011;56119;50.118;8.642;2023-08-08T12:25:18;4.22;;;1.58;;
69047;SDS011;56119;50.118;8.642;2023-08-08T12:27:44;3.83;;;1.83;;
69047;SDS011;56119;50.118;8.642;2023-08-08T12:30:10;3.17;;;1.35;;
69047;SDS011;56119;50.118;8.642;2023-08-08T12:32:36;4.78;;;1.58;;
69047;SDS011;56119;50.118;8.642;2023-08-08T12:35:02;5.32;;;1.50;;
69047;SDS011;56119;50.118;8.642;2023-08-08T12:37:28;4.18;;;1.40;;
69047;SDS011;56119;50.118;8.642;2023-08-08T12:39:54;3.88;;;1.83;;
69047;SDS011;56119;50.118;8.642;2023-08-08T12:42:21;3.65;;;1.70;;
69047;SDS011;56119;50.118;8.642;2023-08-08T12:44:47;5.40;;;1.80;;
69047;SDS011;56119;50.118;8.642;2023-08-08T12:47:16;3.85;;;1.38;;
69047;SDS011;56119;50.118;8.642;2023-08-08T12:49:42;3.90;;;1.52;;
69047;SDS011;56119;50.118;8.642;2023-08-08T12:52:08;3.08;;;1.58;;
69047;SDS011;56119;50.118;8.642;2023-08-08T12:54:34;2.15;;;1.27;;
69047;SDS011;56119;50.118;8.642;2023-08-08T12:57:01;4.38;;;1.60;;
69047;SDS011;56119;50.118;8.642;2023-08-08T12:59:27;2.55;;;1.25;;
69047;SDS011;56119;50.118;8.642;2023-08-08T13:01:53;3.70;;;1.33;;
69047;SDS011;56119;50.118;8.642;2023-08-08T13:04:19;5.80;;;1.60;;
69047;SDS011;56119;50.118;8.642;2023-08-08T13:06:46;5.35;;;2.08;;
69047;SDS011;56119;50.118;8.642;2023-08-08T13:09:12;3.40;;;1.15;;
69047;SDS011;56119;50.118;8.642;2023-08-08T13:11:39;6.95;;;1.92;;
69047;SDS011;56119;50.118;8.642;2023-08-08T13:14:05;3.85;;;1.35;;
69047;SDS011;56119;50.118;8.642;2023-08-08T13:16:31;5.38;;;1.55;;
69047;SDS011;56119;50.118;8.642;2023-08-08T13:18:58;3.05;;;1.20;;
69047;SDS011;56119;50.118;8.642;2023-08-08T13:21:24;3.97;;;1.20;;
69047;SDS011;56119;50.118;8.642;2023-08-08T13:23:50;2.78;;;1.60;;
69047;SDS011;56119;50.118;8.642;2023-08-08T13:26:15;4.20;;;1.42;;
69047;SDS011;56119;50.118;8.642;2023-08-08T13:28:41;3.85;;;1.85;;
69047;SDS011;56119;50.118;8.642;2023-08-08T13:31:08;5.55;;;1.60;;
69047;SDS011;56119;50.118;8.642;2023-08-08T13:33:34;3.30;;;1.40;;
69047;SDS011;56119;50.118;8.642;2023-08-08T13:36:00;7.47;;;1.60;;
69047;SDS011;56119;50.118;8.642;2023-08-08T13:38:26;4.18;;;1.40;;
69047;SDS011;56119;50.118;8.642;2023-08-08T13:40:53;3.33;;;1.23;;
69047;SDS011;56119;50.118;8.642;2023-08-08T13:43:19;1.45;;;0.85;;
69047;SDS011;56119;50.118;8.642;2023-08-08T13:45:45;3.78;;;1.70;;
69047;SDS011;56119;50.118;8.642;2023-08-08T13:48:11;2.55;;;0.82;;
69047;SDS011;56119;50.118;8.642;2023-08-08T13:50:37;2.60;;;1.20;;
69047;SDS011;56119;50.118;8.642;2023-08-08T13:53:03;2.85;;;1.02;;
69047;SDS011;56119;50.118;8.642;2023-08-08T13:55:29;3.42;;;1.52;;
69047;SDS011;56119;50.118;8.642;2023-08-08T13:57:56;3.50;;;1.80;;
69047;SDS011;56119;50.118;8.642;2023-08-08T14:00:23;3.05;;;1.10;;
69047;SDS011;56119;50.118;8.642;2023-08-08T14:02:49;3.10;;;1.30;;
69047;SDS011;56119;50.118;8.642;2023-08-08T14:05:15;3.45;;;1.48;;
69047;SDS011;56119;50.118;8.642;2023-08-08T14:07:41;3.28;;;1.45;;
69047;SDS011;56119;50.118;8.642;2023-08-08T14:10:07;2.53;;;1.05;;
69047;SDS011;56119;50.118;8.642;2023-08-08T14:12:34;2.65;;;1.52;;
69047;SDS011;56119;50.118;8.642;2023-08-08T14:15:00;3.83;;;1.00;;
69047;SDS011;56119;50.118;8.642;2023-08-08T14:17:26;3.28;;;1.35;;
69047;SDS011;56119;50.118;8.642;2023-08-08T14:19:52;4.50;;;1.20;;
69047;SDS011;56119;50.118;8.642;2023-08-08T14:22:18;3.47;;;1.20;;
69047;SDS011;56119;50.118;8.642;2023-08-08T14:24:44;3.50;;;1.40;;
69047;SDS011;56119;50.118;8.642;2023-08-08T14:27:10;4.53;;;1.52;;
69047;SDS011;56119;50.118;8.642;2023-08-08T14:29:36;3.60;;;1.55;;
69047;SDS011;56119;50.118;8.642;2023-08-08T14:32:02;4.55;;;1.23;;
69047;SDS011;56119;50.118;8.642;2023-08-08T14:34:29;2.42;;;1.63;;
69047;SDS011;56119;50.118;8.642;2023-08-08T14:36:55;2.05;;;0.90;;
69047;SDS011;56119;50.118;8.642;2023-08-08T14:39:22;4.70;;;1.65;;
69047;SDS011;56119;50.118;8.642;2023-08-08T14:41:48;2.75;;;1.15;;
69047;SDS011;56119;50.118;8.642;2023-08-08T14:44:14;3.05;;;1.10;;
69047;SDS011;56119;50.118;8.642;2023-08-08T14:46:40;3.60;;;1.10;;